createdAt,value
2022-10-01T00:01:41.623Z,2.56
2022-10-01T00:05:03.271Z,2.49
2022-10-01T00:08:25.073Z,2.43
2022-10-01T00:11:48.498Z,2.46
2022-10-01T00:15:13.562Z,2.45
2022-10-01T00:18:37.236Z,2.40
2022-10-01T00:21:59.458Z,2.36
2022-10-01T00:25:22.605Z,2.35
2022-10-01T00:28:47.928Z,2.35
2022-10-01T00:32:10.101Z,2.33
2022-10-01T00:35:32.262Z,2.31
2022-10-01T00:38:54.458Z,2.27
2022-10-01T00:42:21.195Z,2.21
2022-10-01T00:45:44.473Z,2.21
2022-10-01T00:49:10.289Z,2.18
2022-10-01T00:52:34.403Z,2.16
2022-10-01T00:56:00.195Z,2.13
2022-10-01T00:59:22.538Z,2.10
2022-10-01T01:02:46.268Z,2.08
2022-10-01T01:06:09.896Z,2.07
2022-10-01T01:09:37.151Z,2.06
2022-10-01T01:13:12.864Z,2.03
2022-10-01T01:16:39.274Z,1.96
2022-10-01T01:20:21.343Z,1.93
2022-10-01T01:24:07.808Z,1.93
2022-10-01T01:27:41.692Z,1.90
2022-10-01T01:31:09.294Z,1.87
2022-10-01T01:34:34.617Z,1.83
2022-10-01T01:38:02.293Z,1.82
2022-10-01T01:41:27.451Z,1.62
2022-10-01T01:44:53.384Z,1.78
2022-10-01T01:48:16.997Z,1.74
2022-10-01T01:51:46.141Z,1.71
2022-10-01T01:55:08.901Z,1.69
2022-10-01T01:58:33.864Z,1.67
2022-10-01T02:01:58.307Z,1.62
2022-10-01T02:05:27.344Z,1.58
2022-10-01T02:08:50.962Z,1.55
2022-10-01T02:12:24.513Z,1.51
2022-10-01T02:15:55.413Z,1.44
2022-10-01T02:19:25.912Z,1.44
2022-10-01T02:22:55.584Z,1.42
2022-10-01T02:26:21.054Z,1.40
2022-10-01T02:29:46.526Z,1.40
2022-10-01T02:33:11.109Z,1.39
2022-10-01T02:36:34.944Z,1.34
2022-10-01T02:40:00.913Z,1.37
2022-10-01T02:43:29.779Z,1.36
2022-10-01T02:46:58.255Z,1.34
2022-10-01T02:50:22.220Z,1.33
2022-10-01T02:53:48.548Z,1.32
2022-10-01T02:57:24.269Z,1.31
2022-10-01T03:00:46.298Z,1.30
2022-10-01T03:04:08.335Z,1.29
2022-10-01T03:07:32.436Z,1.28
2022-10-01T03:10:54.556Z,1.26
2022-10-01T03:14:18.070Z,1.28
2022-10-01T03:17:39.962Z,1.28
2022-10-01T03:21:01.988Z,1.30
2022-10-01T03:24:24.091Z,1.28
2022-10-01T03:27:47.123Z,1.27
2022-10-01T03:31:12.110Z,1.24
2022-10-01T03:34:33.988Z,1.20
2022-10-01T03:37:56.873Z,1.24
2022-10-01T03:41:19.019Z,1.25
2022-10-01T03:44:41.099Z,1.15
2022-10-01T03:48:04.432Z,1.23
2022-10-01T03:51:26.839Z,1.21
2022-10-01T03:54:48.853Z,1.23
2022-10-01T03:58:10.813Z,1.02
2022-10-01T04:01:32.989Z,1.20
2022-10-01T04:04:56.870Z,1.19
2022-10-01T04:08:24.088Z,0.89
2022-10-01T04:11:46.655Z,1.13
2022-10-01T04:15:09.693Z,1.12
2022-10-01T04:18:31.640Z,1.10
2022-10-01T04:21:54.540Z,1.11
2022-10-01T04:25:16.868Z,0.87
2022-10-01T04:28:39.056Z,1.11
2022-10-01T04:32:03.721Z,1.09
2022-10-01T04:35:26.056Z,1.08
2022-10-01T04:38:51.438Z,1.06
2022-10-01T04:42:13.842Z,1.05
2022-10-01T04:45:35.893Z,1.02
2022-10-01T04:48:57.756Z,1.01
2022-10-01T04:52:22.310Z,1.02
2022-10-01T04:55:46.594Z,1.04
2022-10-01T04:59:08.726Z,1.06
2022-10-01T05:02:30.705Z,1.07
2022-10-01T05:05:52.745Z,1.11
2022-10-01T05:09:14.596Z,1.14
2022-10-01T05:12:37.944Z,1.22
2022-10-01T05:15:59.955Z,1.32
2022-10-01T05:19:25.239Z,1.47
2022-10-01T05:22:50.100Z,1.61
2022-10-01T05:26:11.829Z,1.74
2022-10-01T05:29:35.518Z,1.88
2022-10-01T05:32:59.653Z,2.02
2022-10-01T05:36:21.403Z,2.13
2022-10-01T05:39:43.447Z,2.29
2022-10-01T05:43:05.689Z,2.43
2022-10-01T05:46:29.069Z,2.55
2022-10-01T05:49:51.303Z,2.67
2022-10-01T05:53:14.148Z,2.78
2022-10-01T05:56:37.016Z,2.90
2022-10-01T05:59:59.078Z,3.05
2022-10-01T06:03:22.915Z,3.17
2022-10-01T06:06:45.093Z,3.24
2022-10-01T06:10:07.846Z,3.35
2022-10-01T06:13:29.999Z,3.49
2022-10-01T06:16:57.417Z,3.60
2022-10-01T06:20:20.789Z,3.70
2022-10-01T06:23:44.527Z,3.80
2022-10-01T06:27:06.440Z,3.92
2022-10-01T06:30:29.410Z,3.99
2022-10-01T06:33:51.635Z,4.10
2022-10-01T06:37:14.911Z,4.17
2022-10-01T06:40:37.231Z,4.25
2022-10-01T06:43:59.134Z,4.36
2022-10-01T06:47:21.001Z,4.46
2022-10-01T06:50:44.407Z,4.56
2022-10-01T06:54:08.037Z,4.68
2022-10-01T06:57:30.444Z,4.78
2022-10-01T07:00:52.450Z,4.91
2022-10-01T07:04:14.596Z,5.04
2022-10-01T07:07:38.506Z,5.16
2022-10-01T07:11:03.851Z,5.33
2022-10-01T07:14:25.832Z,5.48
2022-10-01T07:17:50.197Z,5.57
2022-10-01T07:21:12.212Z,5.68
2022-10-01T07:24:34.134Z,5.67
2022-10-01T07:27:59.128Z,5.87
2022-10-01T07:31:21.434Z,5.97
2022-10-01T07:34:43.302Z,6.07
2022-10-01T07:38:07.646Z,6.15
2022-10-01T07:41:29.934Z,6.25
2022-10-01T07:44:53.649Z,6.35
2022-10-01T07:48:16.267Z,6.45
2022-10-01T07:51:38.115Z,6.39
2022-10-01T07:54:59.981Z,6.55
2022-10-01T07:58:24.409Z,6.60
2022-10-01T08:01:51.860Z,6.65
2022-10-01T08:05:20.481Z,6.70
2022-10-01T08:08:43.349Z,6.77
2022-10-01T08:12:05.725Z,6.76
2022-10-01T08:15:27.804Z,6.98
2022-10-01T08:18:55.802Z,7.09
2022-10-01T08:22:17.696Z,7.21
2022-10-01T08:25:40.902Z,7.39
2022-10-01T08:29:02.816Z,7.58
2022-10-01T08:32:25.601Z,7.72
2022-10-01T08:35:49.171Z,7.86
2022-10-01T08:39:12.510Z,8.00
2022-10-01T08:42:45.258Z,8.14
2022-10-01T08:46:13.932Z,8.29
2022-10-01T08:49:41.563Z,8.47
2022-10-01T08:53:11.143Z,8.43
2022-10-01T08:56:37.859Z,8.67
2022-10-01T09:00:01.490Z,8.77
2022-10-01T09:03:23.964Z,8.92
2022-10-01T09:06:54.767Z,9.08
2022-10-01T09:10:35.998Z,9.26
2022-10-01T09:14:22.588Z,9.41
2022-10-01T09:17:59.690Z,9.56
2022-10-01T09:21:27.467Z,9.70
2022-10-01T09:24:57.473Z,9.86
2022-10-01T09:28:24.010Z,10.03
2022-10-01T09:31:51.947Z,10.17
2022-10-01T09:35:26.641Z,10.33
2022-10-01T09:38:57.545Z,10.44
2022-10-01T09:42:19.949Z,10.63
2022-10-01T09:45:43.907Z,10.75
2022-10-01T09:49:13.036Z,10.86
2022-10-01T09:52:38.509Z,10.99
2022-10-01T09:56:04.520Z,11.09
2022-10-01T09:59:32.640Z,11.11
2022-10-01T10:02:56.899Z,11.04
2022-10-01T10:06:24.128Z,10.98
2022-10-01T10:09:46.941Z,11.13
2022-10-01T10:13:21.758Z,11.14
2022-10-01T10:16:47.438Z,11.08
2022-10-01T10:20:25.866Z,11.09
2022-10-01T10:23:50.067Z,11.18
2022-10-01T10:27:25.128Z,11.20
2022-10-01T10:30:49.080Z,11.19
2022-10-01T10:34:17.525Z,11.27
2022-10-01T10:37:49.845Z,11.30
2022-10-01T10:41:19.695Z,11.36
2022-10-01T10:44:46.795Z,11.20
2022-10-01T10:48:17.076Z,11.42
2022-10-01T10:51:48.818Z,11.38
2022-10-01T10:55:24.113Z,11.50
2022-10-01T10:58:46.791Z,11.61
2022-10-01T11:02:18.598Z,11.68
2022-10-01T11:05:43.568Z,11.67
2022-10-01T11:09:12.408Z,11.86
2022-10-01T11:12:56.814Z,11.85
2022-10-01T11:16:35.403Z,11.89
2022-10-01T11:20:30.336Z,11.94
2022-10-01T11:24:07.129Z,11.89
2022-10-01T11:27:40.811Z,11.81
2022-10-01T11:31:13.093Z,11.61
2022-10-01T11:35:07.004Z,11.89
2022-10-01T11:38:55.518Z,11.99
2022-10-01T11:42:22.343Z,12.01
2022-10-01T11:45:50.097Z,12.05
2022-10-01T11:49:30.375Z,12.13
2022-10-01T11:52:57.766Z,12.00
2022-10-01T11:56:42.868Z,12.20
2022-10-01T12:00:10.456Z,12.05
2022-10-01T12:03:39.499Z,12.07
2022-10-01T12:07:12.612Z,12.07
2022-10-01T12:10:39.860Z,12.06
2022-10-01T12:14:06.604Z,12.09
2022-10-01T12:17:40.379Z,12.06
2022-10-01T12:21:04.535Z,11.95
2022-10-01T12:24:31.491Z,12.02
2022-10-01T12:28:03.253Z,11.94
2022-10-01T12:31:33.846Z,11.79
2022-10-01T12:35:11.668Z,11.81
2022-10-01T12:38:49.163Z,11.82
2022-10-01T12:42:31.432Z,11.77
2022-10-01T12:46:03.659Z,11.60
2022-10-01T12:49:34.571Z,11.52
2022-10-01T12:53:12.901Z,11.43
2022-10-01T12:56:41.070Z,11.40
2022-10-01T13:00:20.778Z,11.35
2022-10-01T13:04:22.076Z,11.32
2022-10-01T13:07:57.841Z,11.32
2022-10-01T13:11:38.987Z,11.38
2022-10-01T13:15:01.275Z,11.42
2022-10-01T13:18:36.788Z,11.41
2022-10-01T13:22:09.020Z,11.41
2022-10-01T13:25:40.597Z,11.45
2022-10-01T13:29:14.028Z,11.44
2022-10-01T13:32:51.728Z,11.48
2022-10-01T13:36:17.562Z,11.39
2022-10-01T13:39:42.248Z,11.31
2022-10-01T13:43:10.171Z,11.26
2022-10-01T13:46:35.441Z,11.14
2022-10-01T13:50:04.165Z,11.04
2022-10-01T13:53:29.899Z,10.98
2022-10-01T13:56:51.973Z,10.98
2022-10-01T14:00:25.331Z,11.02
2022-10-01T14:03:52.650Z,11.06
2022-10-01T14:07:18.516Z,10.88
2022-10-01T14:11:05.317Z,11.08
2022-10-01T14:14:50.537Z,11.02
2022-10-01T14:18:17.799Z,10.98
2022-10-01T14:21:54.298Z,10.98
2022-10-01T14:25:28.640Z,10.90
2022-10-01T14:29:04.521Z,10.83
2022-10-01T14:32:35.575Z,10.76
2022-10-01T14:36:04.507Z,10.71
2022-10-01T14:39:27.363Z,10.75
2022-10-01T14:42:59.306Z,10.75
2022-10-01T14:46:22.980Z,10.73
2022-10-01T14:49:45.143Z,10.73
2022-10-01T14:53:07.976Z,10.74
2022-10-01T14:56:30.567Z,10.73
2022-10-01T14:59:52.610Z,10.70
2022-10-01T15:03:16.398Z,10.67
2022-10-01T15:06:44.138Z,10.58
2022-10-01T15:10:10.337Z,10.55
2022-10-01T15:13:36.745Z,10.53
2022-10-01T15:16:59.497Z,10.45
2022-10-01T15:20:23.844Z,10.19
2022-10-01T15:23:45.958Z,10.32
2022-10-01T15:27:09.982Z,10.25
2022-10-01T15:30:33.983Z,10.22
2022-10-01T15:33:56.362Z,10.21
2022-10-01T15:37:22.313Z,10.17
2022-10-01T15:40:45.442Z,10.14
2022-10-01T15:44:07.369Z,10.08
2022-10-01T15:47:34.393Z,10.06
2022-10-01T15:51:01.584Z,10.03
2022-10-01T15:54:25.045Z,10.02
2022-10-01T15:57:47.381Z,10.01
2022-10-01T16:01:12.460Z,9.97
2022-10-01T16:04:34.376Z,9.95
2022-10-01T16:07:58.873Z,9.94
2022-10-01T16:11:27.832Z,9.88
2022-10-01T16:14:57.860Z,9.89
2022-10-01T16:18:23.835Z,9.81
2022-10-01T16:21:53.450Z,9.80
2022-10-01T16:26:16.587Z,9.81
2022-10-01T16:29:41.272Z,9.79
2022-10-01T16:33:06.244Z,9.77
2022-10-01T16:36:28.565Z,9.76
2022-10-01T16:39:50.646Z,9.75
2022-10-01T16:43:17.861Z,9.70
2022-10-01T16:46:42.177Z,9.69
2022-10-01T16:50:04.324Z,9.66
2022-10-01T16:53:27.498Z,9.62
2022-10-01T16:56:50.700Z,9.58
2022-10-01T17:05:18.820Z,9.38
2022-10-01T17:08:41.014Z,9.56
2022-10-01T17:12:03.226Z,9.55
2022-10-01T17:15:27.607Z,9.55
2022-10-01T17:18:49.520Z,9.57
2022-10-01T17:22:12.984Z,9.57
2022-10-01T17:25:38.542Z,9.53
2022-10-01T17:29:00.719Z,9.47
2022-10-01T17:32:22.823Z,9.50
2022-10-01T17:35:48.762Z,9.51
2022-10-01T17:39:12.411Z,9.48
2022-10-01T17:42:35.695Z,9.41
2022-10-01T17:45:58.780Z,9.46
2022-10-01T17:49:20.673Z,9.45
2022-10-01T17:52:42.617Z,9.46
2022-10-01T17:56:08.326Z,9.37
2022-10-01T17:59:30.349Z,9.41
2022-10-01T18:02:54.788Z,9.36
2022-10-01T18:06:16.727Z,9.34
2022-10-01T18:09:38.837Z,9.35
2022-10-01T18:13:02.407Z,9.35
2022-10-01T18:16:24.980Z,9.35
2022-10-01T18:19:53.463Z,9.34
2022-10-01T18:23:15.800Z,9.32
2022-10-01T18:26:38.278Z,9.33
2022-10-01T18:30:02.100Z,9.25
2022-10-01T18:33:24.331Z,9.34
2022-10-01T18:36:54.945Z,9.34
2022-10-01T18:40:20.093Z,9.35
2022-10-01T18:43:43.699Z,9.32
2022-10-01T18:47:19.373Z,9.32
2022-10-01T18:50:47.778Z,9.30
2022-10-01T18:54:38.685Z,9.30
2022-10-01T18:58:15.465Z,9.28
2022-10-01T20:35:25.348Z,8.56
2022-10-01T22:10:14.718Z,8.26
2022-10-01T22:13:42.684Z,8.26
2022-10-01T22:17:09.890Z,8.25
2022-10-01T22:20:35.602Z,8.22
2022-10-01T22:24:04.505Z,8.16
2022-10-01T22:27:33.325Z,8.17
2022-10-01T22:30:57.955Z,8.15
2022-10-01T22:34:23.747Z,8.12
2022-10-01T22:37:51.637Z,8.13
2022-10-01T22:41:21.237Z,8.09
2022-10-01T22:44:44.919Z,8.10
2022-10-01T22:48:20.220Z,8.07
2022-10-01T22:51:53.913Z,8.10
2022-10-01T22:55:25.851Z,8.07
2022-10-01T22:59:04.847Z,8.06
2022-10-01T23:02:34.204Z,7.98
2022-10-01T23:06:06.319Z,8.06
2022-10-01T23:09:36.459Z,8.07
2022-10-01T23:13:13.905Z,8.07
2022-10-01T23:16:45.280Z,8.06
2022-10-01T23:20:23.538Z,8.07
2022-10-01T23:23:55.005Z,8.06
2022-10-01T23:27:25.647Z,8.07
2022-10-01T23:30:59.642Z,8.04
2022-10-01T23:34:31.256Z,8.09
2022-10-01T23:38:13.088Z,8.09
2022-10-01T23:41:41.047Z,8.09
2022-10-01T23:45:20.173Z,8.03
2022-10-01T23:48:47.634Z,8.10
2022-10-01T23:52:16.732Z,8.09
2022-10-01T23:56:08.527Z,8.10
2022-10-01T23:59:34.860Z,8.12
